createdAt,value
2018-05-18T00:01:04.207Z,11.30
2018-05-18T00:03:30.206Z,11.30
2018-05-18T00:05:56.951Z,11.30
2018-05-18T00:08:23.747Z,11.20
2018-05-18T00:10:49.728Z,11.20
2018-05-18T00:13:15.703Z,11.30
2018-05-18T00:15:41.688Z,11.10
2018-05-18T00:18:07.677Z,11.10
2018-05-18T00:20:33.662Z,11.00
2018-05-18T00:22:59.693Z,11.00
2018-05-18T00:25:26.449Z,11.00
2018-05-18T00:27:52.452Z,11.00
2018-05-18T00:30:18.563Z,10.80
2018-05-18T00:32:44.539Z,10.90
2018-05-18T00:35:10.522Z,10.90
2018-05-18T00:37:37.256Z,10.90
2018-05-18T00:40:03.281Z,10.90
2018-05-18T00:42:29.312Z,10.80
2018-05-18T00:44:55.436Z,10.70
2018-05-18T00:47:21.459Z,10.60
2018-05-18T00:49:47.443Z,10.70
2018-05-18T00:52:14.167Z,10.60
2018-05-18T00:54:40.161Z,10.60
2018-05-18T00:57:06.197Z,10.70
2018-05-18T00:59:32.168Z,10.60
2018-05-18T01:01:58.188Z,10.60
2018-05-18T01:04:24.259Z,10.50
2018-05-18T01:06:50.977Z,10.50
2018-05-18T01:09:16.961Z,10.50
2018-05-18T01:11:42.944Z,10.40
2018-05-18T01:14:08.919Z,10.40
2018-05-18T01:16:34.883Z,10.40
2018-05-18T01:19:01.579Z,10.30
2018-05-18T01:21:27.573Z,10.30
2018-05-18T01:23:54.407Z,10.30
2018-05-18T01:26:21.904Z,10.20
2018-05-18T01:28:47.892Z,10.20
2018-05-18T01:31:13.947Z,10.20
2018-05-18T01:33:39.919Z,10.10
2018-05-18T01:36:05.892Z,10.10
2018-05-18T01:38:31.857Z,10.10
2018-05-18T01:40:57.878Z,10.00
2018-05-18T01:43:23.958Z,9.90
2018-05-18T01:45:49.944Z,10.00
2018-05-18T01:48:15.896Z,10.00
2018-05-18T01:50:41.845Z,10.10
2018-05-18T01:53:07.805Z,10.00
2018-05-18T01:55:33.769Z,10.00
2018-05-18T01:57:59.719Z,10.00
2018-05-18T02:00:25.742Z,10.00
2018-05-18T02:02:51.936Z,10.10
2018-05-18T02:05:18.645Z,9.90
2018-05-18T02:07:44.617Z,9.80
2018-05-18T02:10:11.361Z,9.70
2018-05-18T02:12:37.317Z,9.70
2018-05-18T02:15:04.030Z,9.60
2018-05-18T02:17:29.997Z,9.50
2018-05-18T02:19:56.744Z,9.60
2018-05-18T02:22:30.502Z,9.50
2018-05-18T02:24:56.523Z,9.50
2018-05-18T02:27:22.542Z,9.40
2018-05-18T02:29:49.243Z,9.50
2018-05-18T02:32:15.349Z,9.50
2018-05-18T02:34:41.321Z,9.40
2018-05-18T02:37:07.328Z,9.50
2018-05-18T02:39:33.340Z,9.40
2018-05-18T02:42:00.055Z,9.30
2018-05-18T02:44:26.089Z,9.20
2018-05-18T02:46:52.078Z,9.10
2018-05-18T02:49:18.041Z,9.20
2018-05-18T02:51:44.022Z,9.10
2018-05-18T02:54:09.994Z,9.10
2018-05-18T02:56:35.958Z,9.00
2018-05-18T02:59:01.938Z,9.00
2018-05-18T03:01:28.725Z,9.00
2018-05-18T03:03:54.733Z,9.00
2018-05-18T03:06:21.486Z,8.90
2018-05-18T03:08:48.225Z,8.80
2018-05-18T03:11:14.187Z,8.80
2018-05-18T03:13:40.151Z,8.60
2018-05-18T03:16:06.118Z,8.60
2018-05-18T03:18:32.071Z,8.60
2018-05-18T03:20:58.063Z,8.60
2018-05-18T03:23:24.045Z,8.60
2018-05-18T03:25:50.850Z,8.60
2018-05-18T03:28:16.885Z,8.60
2018-05-18T03:30:42.840Z,8.90
2018-05-18T03:33:08.800Z,8.80
2018-05-18T03:35:34.759Z,8.70
2018-05-18T03:38:00.725Z,8.70
2018-05-18T03:40:26.750Z,8.60
2018-05-18T03:42:52.750Z,8.70
2018-05-18T03:45:19.472Z,8.60
2018-05-18T03:47:45.439Z,8.60
2018-05-18T03:50:12.137Z,8.80
2018-05-18T03:52:38.110Z,8.80
2018-05-18T03:55:04.075Z,8.80
2018-05-18T03:57:30.194Z,8.80
2018-05-18T03:59:56.195Z,8.70
2018-05-18T04:02:34.491Z,8.80
2018-05-18T04:05:13.054Z,8.80
2018-05-18T04:07:46.271Z,8.90
2018-05-18T04:10:12.183Z,8.90
2018-05-18T04:12:38.154Z,9.10
2018-05-18T04:15:04.156Z,9.20
2018-05-18T04:17:30.220Z,9.50
2018-05-18T04:19:56.273Z,9.50
2018-05-18T04:22:22.293Z,9.60
2018-05-18T04:24:48.250Z,9.50
2018-05-18T04:27:14.945Z,9.60
2018-05-18T04:29:40.923Z,9.50
2018-05-18T04:32:06.895Z,9.90
2018-05-18T04:34:32.870Z,9.90
2018-05-18T04:36:58.877Z,9.90
2018-05-18T04:39:24.887Z,9.90
2018-05-18T04:41:50.938Z,10.00
2018-05-18T04:44:16.914Z,10.10
2018-05-18T04:46:42.882Z,10.10
2018-05-18T04:49:08.833Z,10.40
2018-05-18T04:51:34.816Z,10.70
2018-05-18T04:54:00.801Z,11.70
2018-05-18T04:56:27.522Z,12.60
2018-05-18T04:58:53.603Z,12.60
2018-05-18T05:01:19.495Z,13.90
2018-05-18T05:03:45.441Z,14.10
2018-05-18T05:06:11.393Z,15.00
2018-05-18T05:08:38.169Z,17.30
2018-05-18T05:11:04.126Z,17.30
2018-05-18T05:13:30.127Z,18.50
2018-05-18T05:15:56.204Z,18.80
2018-05-18T05:18:22.199Z,19.40
2018-05-18T05:20:48.174Z,19.30
2018-05-18T05:23:14.137Z,19.90
2018-05-18T05:25:40.158Z,19.40
2018-05-18T05:28:06.805Z,18.20
2018-05-18T05:30:32.876Z,18.20
2018-05-18T05:32:58.759Z,19.20
2018-05-18T05:35:24.767Z,18.40
2018-05-18T05:37:51.001Z,18.70
2018-05-18T05:40:17.797Z,18.80
2018-05-18T05:42:43.770Z,18.80
2018-05-18T05:45:09.730Z,18.40
2018-05-18T05:47:35.699Z,19.00
2018-05-18T05:50:01.666Z,19.50
2018-05-18T05:52:28.389Z,20.20
2018-05-18T05:54:54.507Z,20.10
2018-05-18T05:57:20.512Z,20.60
2018-05-18T05:59:47.225Z,20.70
2018-05-18T06:02:13.199Z,20.70
2018-05-18T06:04:39.905Z,24.40
2018-05-18T06:07:05.890Z,24.30
2018-05-18T06:09:32.590Z,25.50
2018-05-18T06:11:58.696Z,25.40
2018-05-18T06:14:24.737Z,26.20
2018-05-18T06:16:50.720Z,26.30
2018-05-18T06:19:16.691Z,26.30
2018-05-18T06:21:43.413Z,24.70
2018-05-18T06:24:09.365Z,24.70
2018-05-18T06:26:35.319Z,24.20
2018-05-18T06:29:02.047Z,25.00
2018-05-18T06:31:28.068Z,25.00
2018-05-18T06:33:54.105Z,24.80
2018-05-18T06:36:20.094Z,25.60
2018-05-18T06:38:46.067Z,26.60
2018-05-18T06:41:12.114Z,26.00
2018-05-18T06:43:38.748Z,26.30
2018-05-18T06:46:04.708Z,26.30
2018-05-18T06:48:30.715Z,25.40
2018-05-18T06:50:56.973Z,26.40
2018-05-18T06:53:22.992Z,25.30
2018-05-18T06:55:48.994Z,25.80
2018-05-18T06:58:14.955Z,26.30
2018-05-18T07:00:40.946Z,26.50
2018-05-18T07:03:07.670Z,24.50
2018-05-18T07:05:33.647Z,24.50
2018-05-18T07:07:59.650Z,24.90
2018-05-18T07:10:25.745Z,24.30
2018-05-18T07:12:51.736Z,24.30
2018-05-18T07:15:18.441Z,24.90
2018-05-18T07:17:44.400Z,24.90
2018-05-18T07:20:10.374Z,24.40
2018-05-18T07:22:37.080Z,24.40
2018-05-18T07:25:03.050Z,24.40
2018-05-18T07:27:29.887Z,25.30
2018-05-18T07:29:55.940Z,25.30
2018-05-18T07:32:22.672Z,25.70
2018-05-18T07:34:48.651Z,25.70
2018-05-18T07:37:14.613Z,27.90
2018-05-18T07:39:40.567Z,29.00
2018-05-18T07:42:06.582Z,28.20
2018-05-18T07:44:32.547Z,27.10
2018-05-18T07:46:58.610Z,24.40
2018-05-18T07:49:25.346Z,22.20
2018-05-18T07:51:52.897Z,22.70
2018-05-18T07:54:19.392Z,22.70
2018-05-18T07:56:45.932Z,24.40
2018-05-18T07:59:11.952Z,25.70
2018-05-18T08:01:38.019Z,28.00
2018-05-18T08:04:03.991Z,27.70
2018-05-18T08:06:29.969Z,27.20
2018-05-18T08:08:56.074Z,26.70
2018-05-18T08:11:22.103Z,22.40
2018-05-18T08:13:48.074Z,20.40
2018-05-18T08:16:14.040Z,23.30
2018-05-18T08:18:40.017Z,24.40
2018-05-18T08:21:05.989Z,22.80
2018-05-18T08:23:39.187Z,21.00
2018-05-18T08:26:05.155Z,20.90
2018-05-18T08:28:44.649Z,20.40
2018-05-18T08:31:10.657Z,20.20
2018-05-18T08:33:36.632Z,19.40
2018-05-18T08:36:02.609Z,19.00
2018-05-18T08:38:28.614Z,20.20
2018-05-18T08:40:54.641Z,21.20
2018-05-18T08:43:20.608Z,20.50
2018-05-18T08:45:47.328Z,22.30
2018-05-18T08:48:13.310Z,22.30
2018-05-18T08:50:39.265Z,21.80
2018-05-18T08:53:05.231Z,21.10
2018-05-18T08:55:31.185Z,20.10
2018-05-18T08:57:57.449Z,19.60
2018-05-18T09:00:24.306Z,20.30
2018-05-18T09:02:51.911Z,22.40
2018-05-18T09:05:17.872Z,22.40
2018-05-18T09:07:43.832Z,22.30
2018-05-18T09:10:10.542Z,24.10
2018-05-18T09:12:36.494Z,24.10
2018-05-18T09:15:03.951Z,23.40
2018-05-18T09:17:29.910Z,23.40
2018-05-18T09:19:55.893Z,22.60
2018-05-18T09:22:21.909Z,22.10
2018-05-18T09:24:48.610Z,20.20
2018-05-18T09:27:14.573Z,20.20
2018-05-18T09:29:40.562Z,20.80
2018-05-18T09:32:06.773Z,19.80
2018-05-18T09:34:33.542Z,17.50
2018-05-18T09:36:59.760Z,17.50
2018-05-18T09:39:26.536Z,17.10
2018-05-18T09:41:53.069Z,17.00
2018-05-18T09:44:19.525Z,16.70
2018-05-18T09:46:45.710Z,16.70
2018-05-18T09:49:11.687Z,16.40
2018-05-18T09:51:38.481Z,15.80
2018-05-18T09:54:04.503Z,15.80
2018-05-18T09:56:31.255Z,15.20
2018-05-18T09:58:57.260Z,15.10
2018-05-18T10:01:24.293Z,14.60
2018-05-18T10:03:50.267Z,14.60
2018-05-18T10:06:16.953Z,14.30
2018-05-18T10:08:42.923Z,14.30
2018-05-18T10:11:08.906Z,14.40
2018-05-18T10:13:34.891Z,14.30
2018-05-18T10:16:00.907Z,14.60
2018-05-18T10:18:26.887Z,14.60
2018-05-18T10:20:52.910Z,14.70
2018-05-18T10:23:19.733Z,14.90
2018-05-18T10:25:45.717Z,14.80
2018-05-18T10:28:12.413Z,15.10
2018-05-18T10:30:38.373Z,15.10
2018-05-18T10:33:04.355Z,15.20
2018-05-18T10:35:31.070Z,15.30
2018-05-18T10:37:57.097Z,15.30
2018-05-18T10:40:23.129Z,15.80
2018-05-18T10:42:49.119Z,16.00
2018-05-18T10:45:15.072Z,16.50
2018-05-18T10:47:41.048Z,17.60
2018-05-18T10:50:07.051Z,17.70
2018-05-18T10:52:33.031Z,17.50
2018-05-18T10:54:59.028Z,17.30
2018-05-18T10:57:25.101Z,16.80
2018-05-18T10:59:51.255Z,17.20
2018-05-18T11:02:17.957Z,16.40
2018-05-18T11:04:43.916Z,16.30
2018-05-18T11:07:09.910Z,16.10
2018-05-18T11:09:35.906Z,16.60
2018-05-18T11:12:01.894Z,16.50
2018-05-18T11:14:27.902Z,17.20
2018-05-18T11:16:53.917Z,16.80
2018-05-18T11:19:20.628Z,17.40
2018-05-18T11:21:46.719Z,17.40
2018-05-18T11:24:13.441Z,17.00
2018-05-18T11:26:39.409Z,17.10
2018-05-18T11:29:06.117Z,17.10
2018-05-18T11:31:32.089Z,17.10
2018-05-18T11:33:58.851Z,16.50
2018-05-18T11:36:25.615Z,16.40
2018-05-18T11:38:52.402Z,16.20
2018-05-18T11:41:18.388Z,16.20
2018-05-18T11:43:45.089Z,16.10
2018-05-18T11:46:11.076Z,16.10
2018-05-18T11:48:37.861Z,16.20
2018-05-18T11:51:03.974Z,16.20
2018-05-18T11:53:29.936Z,16.40
2018-05-18T11:55:55.924Z,16.40
2018-05-18T11:58:21.938Z,16.40
2018-05-18T12:00:47.914Z,16.10
2018-05-18T12:03:14.657Z,16.20
2018-05-18T12:05:40.621Z,16.20
2018-05-18T12:08:06.591Z,16.30
2018-05-18T12:10:32.563Z,16.30
2018-05-18T12:12:58.539Z,16.50
2018-05-18T12:15:24.659Z,16.40
2018-05-18T12:17:51.438Z,16.20
2018-05-18T12:20:17.430Z,16.20
2018-05-18T12:22:43.378Z,16.40
2018-05-18T12:25:10.084Z,15.50
2018-05-18T12:27:36.087Z,15.50
2018-05-18T12:30:02.053Z,16.50
2018-05-18T12:32:28.070Z,16.70
2018-05-18T12:34:54.035Z,16.40
2018-05-18T12:37:19.992Z,16.80
2018-05-18T12:39:46.699Z,16.60
2018-05-18T12:42:12.699Z,16.60
2018-05-18T12:44:38.736Z,15.30
2018-05-18T12:47:04.681Z,15.10
2018-05-18T12:49:30.690Z,14.70
2018-05-18T12:51:56.711Z,14.20
2018-05-18T12:54:23.088Z,14.90
2018-05-18T12:56:49.095Z,15.00
2018-05-18T12:59:15.066Z,14.80
2018-05-18T13:01:41.038Z,15.20
2018-05-18T13:04:07.039Z,14.30
2018-05-18T13:06:33.026Z,14.20
2018-05-18T13:08:58.992Z,14.50
2018-05-18T13:11:25.769Z,14.70
2018-05-18T13:13:51.768Z,14.60
2018-05-18T13:16:17.730Z,14.60
2018-05-18T13:18:43.727Z,14.70
2018-05-18T13:21:09.722Z,14.50
2018-05-18T13:23:35.694Z,14.40
2018-05-18T13:26:02.423Z,14.90
2018-05-18T13:28:28.413Z,14.90
2018-05-18T13:30:54.447Z,14.80
2018-05-18T13:33:20.441Z,14.70
2018-05-18T13:35:46.438Z,14.80
2018-05-18T13:38:12.510Z,14.70
2018-05-18T13:40:39.221Z,15.10
2018-05-18T13:43:05.194Z,15.10
2018-05-18T13:45:31.289Z,15.10
2018-05-18T13:47:57.252Z,15.30
2018-05-18T13:50:23.241Z,15.20
2018-05-18T13:52:49.218Z,15.10
2018-05-18T13:55:15.349Z,15.20
2018-05-18T13:57:41.396Z,15.40
2018-05-18T14:00:08.109Z,15.50
2018-05-18T14:02:34.083Z,15.50
2018-05-18T14:05:00.063Z,15.40
2018-05-18T14:07:26.827Z,15.70
2018-05-18T14:09:52.786Z,15.70
2018-05-18T14:12:18.951Z,15.80
2018-05-18T14:14:45.036Z,15.80
2018-05-18T14:17:11.247Z,15.80
2018-05-18T14:19:37.231Z,15.80
2018-05-18T14:22:03.203Z,15.90
2018-05-18T14:24:29.196Z,15.80
2018-05-18T14:26:55.171Z,16.00
2018-05-18T14:29:21.153Z,16.10
2018-05-18T14:31:47.211Z,16.20
2018-05-18T14:34:13.195Z,16.30
2018-05-18T14:36:39.174Z,16.40
2018-05-18T14:39:05.138Z,16.50
2018-05-18T14:41:31.157Z,16.20
2018-05-18T14:43:57.128Z,16.30
2018-05-18T14:46:23.163Z,16.40
2018-05-18T14:48:49.157Z,16.40
2018-05-18T14:51:15.258Z,16.40
2018-05-18T14:53:42.071Z,16.40
2018-05-18T14:56:08.057Z,16.40
2018-05-18T14:58:34.906Z,16.30
2018-05-18T15:01:00.818Z,16.30
2018-05-18T15:03:27.530Z,16.40
2018-05-18T15:05:53.572Z,16.30
2018-05-18T15:08:19.537Z,16.60
2018-05-18T15:10:45.554Z,16.60
2018-05-18T15:13:11.659Z,16.40
2018-05-18T15:15:37.623Z,16.30
2018-05-18T15:18:03.616Z,16.40
2018-05-18T15:20:29.586Z,16.30
2018-05-18T15:22:55.560Z,16.30
2018-05-18T15:25:21.597Z,16.30
2018-05-18T15:27:49.064Z,16.50
2018-05-18T15:30:15.061Z,16.50
2018-05-18T15:32:41.280Z,16.20
2018-05-18T15:35:07.249Z,16.20
2018-05-18T15:37:33.226Z,16.20
2018-05-18T15:39:59.949Z,16.30
2018-05-18T15:42:25.925Z,16.30
2018-05-18T15:44:52.643Z,16.50
2018-05-18T15:47:18.622Z,16.50
2018-05-18T15:49:44.650Z,16.60
2018-05-18T15:52:11.431Z,16.80
2018-05-18T15:54:37.399Z,16.80
2018-05-18T15:57:03.392Z,16.90
2018-05-18T15:59:29.346Z,16.80
2018-05-18T16:01:55.309Z,16.80
2018-05-18T16:04:21.325Z,16.80
2018-05-18T16:06:48.124Z,16.70
2018-05-18T16:09:14.139Z,16.80
2018-05-18T16:11:40.118Z,16.70
2018-05-18T16:14:06.091Z,16.80
2018-05-18T16:16:32.069Z,16.60
2018-05-18T16:18:58.857Z,16.50
2018-05-18T16:21:24.844Z,16.50
2018-05-18T16:23:50.822Z,16.50
2018-05-18T16:26:16.811Z,16.60
2018-05-18T16:28:43.010Z,16.70
2018-05-18T16:31:08.965Z,16.50
2018-05-18T16:33:35.094Z,16.50
2018-05-18T16:36:01.034Z,16.50
2018-05-18T16:38:26.993Z,16.40
2018-05-18T16:40:52.970Z,16.40
2018-05-18T16:43:18.939Z,16.30
2018-05-18T16:45:45.235Z,16.30
2018-05-18T16:48:12.050Z,16.30
2018-05-18T16:50:38.026Z,16.30
2018-05-18T16:53:04.736Z,16.30
2018-05-18T16:55:30.691Z,16.30
2018-05-18T16:57:56.760Z,16.20
2018-05-18T17:00:22.634Z,16.40
2018-05-18T17:02:48.611Z,16.50
2018-05-18T17:05:14.604Z,16.60
2018-05-18T17:07:40.624Z,16.50
2018-05-18T17:10:06.589Z,16.50
2018-05-18T17:12:32.648Z,16.60
2018-05-18T17:14:58.571Z,16.50
2018-05-18T17:17:24.525Z,16.40
2018-05-18T17:19:51.247Z,16.20
2018-05-18T17:22:17.222Z,16.20
2018-05-18T17:24:44.079Z,16.20
2018-05-18T17:27:10.148Z,16.20
2018-05-18T17:29:36.134Z,16.10
2018-05-18T17:32:02.850Z,16.00
2018-05-18T17:34:28.814Z,16.00
2018-05-18T17:36:54.761Z,16.00
2018-05-18T17:39:21.495Z,16.00
2018-05-18T17:41:47.604Z,16.00
2018-05-18T17:44:13.626Z,16.00
2018-05-18T17:46:39.624Z,15.80
2018-05-18T17:49:06.318Z,15.40
2018-05-18T17:51:32.290Z,15.40
2018-05-18T17:53:59.005Z,15.10
2018-05-18T17:56:24.969Z,15.10
2018-05-18T17:58:50.953Z,15.00
2018-05-18T18:01:17.019Z,15.10
2018-05-18T18:03:43.019Z,15.00
2018-05-18T18:06:08.987Z,14.90
2018-05-18T18:08:34.962Z,14.90
2018-05-18T18:11:00.937Z,14.90
2018-05-18T18:13:26.903Z,14.80
2018-05-18T18:15:52.854Z,14.80
2018-05-18T18:18:18.823Z,14.60
2018-05-18T18:20:45.590Z,14.60
2018-05-18T18:23:11.627Z,14.60
2018-05-18T18:25:37.589Z,14.50
2018-05-18T18:28:03.565Z,14.30
2018-05-18T18:30:29.541Z,14.20
2018-05-18T18:32:55.542Z,14.00
2018-05-18T18:35:21.509Z,14.20
2018-05-18T18:37:47.483Z,14.10
2018-05-18T18:40:13.494Z,14.10
2018-05-18T18:42:39.470Z,13.90
2018-05-18T18:45:05.475Z,13.90
2018-05-18T18:47:31.433Z,13.70
2018-05-18T18:49:57.418Z,13.60
2018-05-18T18:52:23.378Z,13.60
2018-05-18T18:54:49.366Z,13.50
2018-05-18T18:57:15.330Z,13.60
2018-05-18T18:59:41.325Z,13.50
2018-05-18T19:02:07.290Z,13.60
2018-05-18T19:04:33.994Z,13.30
2018-05-18T19:06:59.978Z,13.30
2018-05-18T19:09:26.122Z,13.50
2018-05-18T19:11:52.079Z,13.30
2018-05-18T19:14:18.054Z,13.30
2018-05-18T19:16:44.131Z,13.10
2018-05-18T19:19:10.139Z,13.00
2018-05-18T19:21:36.131Z,12.90
2018-05-18T19:24:02.154Z,12.90
2018-05-18T19:26:28.129Z,12.90
2018-05-18T19:28:54.131Z,12.80
2018-05-18T19:31:20.083Z,12.70
2018-05-18T19:33:46.122Z,12.60
2018-05-18T19:36:12.114Z,12.50
2018-05-18T19:38:38.089Z,12.40
2018-05-18T19:41:04.063Z,12.40
2018-05-18T19:43:30.763Z,12.20
2018-05-18T19:45:56.767Z,12.20
2018-05-18T19:48:23.467Z,12.10
2018-05-18T19:50:49.632Z,12.10
2018-05-18T19:53:15.713Z,12.10
2018-05-18T19:55:41.737Z,12.10
2018-05-18T19:58:08.433Z,12.10
2018-05-18T20:00:34.415Z,12.10
2018-05-18T20:03:01.168Z,12.00
2018-05-18T20:05:27.914Z,11.90
2018-05-18T20:07:54.614Z,11.80
2018-05-18T20:10:20.586Z,11.80
2018-05-18T20:12:46.561Z,11.80
2018-05-18T20:15:12.544Z,11.80
2018-05-18T20:17:38.505Z,11.80
2018-05-18T20:20:05.218Z,11.80
2018-05-18T20:22:31.189Z,11.80
2018-05-18T20:24:57.149Z,11.80
2018-05-18T20:27:23.846Z,11.60
2018-05-18T20:29:49.813Z,11.60
2018-05-18T20:32:15.809Z,11.50
2018-05-18T20:34:41.817Z,11.40
2018-05-18T20:37:07.782Z,11.30
2018-05-18T20:39:33.749Z,11.20
2018-05-18T20:41:59.729Z,11.30
2018-05-18T20:44:25.682Z,11.30
2018-05-18T20:46:51.661Z,11.20
2018-05-18T20:49:18.384Z,11.00
2018-05-18T20:51:44.470Z,10.90
2018-05-18T20:54:10.440Z,11.00
2018-05-18T20:56:36.390Z,10.90
2018-05-18T20:59:02.345Z,10.80
2018-05-18T21:01:28.333Z,10.70
2018-05-18T21:03:54.312Z,10.60
2018-05-18T21:06:20.298Z,10.60
2018-05-18T21:08:46.299Z,10.50
2018-05-18T21:11:13.077Z,10.40
2018-05-18T21:13:39.056Z,10.40
2018-05-18T21:16:05.028Z,10.30
2018-05-18T21:18:31.783Z,10.20
2018-05-18T21:20:57.741Z,10.20
2018-05-18T21:23:23.703Z,10.20
2018-05-18T21:25:49.662Z,10.30
2018-05-18T21:28:16.585Z,10.20
2018-05-18T21:30:42.592Z,10.20
2018-05-18T21:33:09.293Z,10.00
2018-05-18T21:35:35.259Z,10.00
2018-05-18T21:38:01.218Z,10.00
2018-05-18T21:40:27.185Z,10.00
2018-05-18T21:42:53.550Z,9.90
2018-05-18T21:45:19.566Z,9.80
2018-05-18T21:47:45.608Z,9.90
2018-05-18T21:50:11.641Z,9.90
2018-05-18T21:52:37.613Z,9.90
2018-05-18T21:55:03.582Z,9.90
2018-05-18T21:57:29.546Z,9.90
2018-05-18T21:59:55.524Z,9.90
2018-05-18T22:02:21.519Z,9.80
2018-05-18T22:04:47.625Z,9.90
2018-05-18T22:07:14.363Z,9.90
2018-05-18T22:09:41.130Z,9.90
2018-05-18T22:12:07.097Z,9.90
2018-05-18T22:14:33.075Z,9.80
2018-05-18T22:16:59.048Z,9.90
2018-05-18T22:19:25.026Z,10.00
2018-05-18T22:21:51.007Z,10.10
2018-05-18T22:24:16.975Z,10.20
2018-05-18T22:26:43.030Z,10.40
2018-05-18T22:29:09.001Z,10.40
2018-05-18T22:31:35.716Z,10.40
2018-05-18T22:34:01.679Z,10.40
2018-05-18T22:36:27.662Z,10.30
2018-05-18T22:38:53.655Z,10.30
2018-05-18T22:41:20.416Z,10.20
2018-05-18T22:43:47.203Z,9.90
2018-05-18T22:46:13.926Z,9.90
2018-05-18T22:48:40.662Z,9.70
2018-05-18T22:51:06.849Z,9.70
2018-05-18T22:53:32.877Z,9.70
2018-05-18T22:55:58.888Z,9.70
2018-05-18T22:58:26.368Z,9.70
2018-05-18T23:00:53.350Z,9.60
2018-05-18T23:03:19.413Z,9.60
2018-05-18T23:05:45.393Z,9.60
2018-05-18T23:08:12.171Z,9.70
2018-05-18T23:10:38.149Z,9.70
2018-05-18T23:13:04.173Z,9.90
2018-05-18T23:15:30.201Z,10.10
2018-05-18T23:17:56.172Z,10.30
2018-05-18T23:20:22.143Z,10.40
2018-05-18T23:22:48.126Z,10.30
2018-05-18T23:25:14.122Z,10.20
2018-05-18T23:27:41.117Z,10.20
2018-05-18T23:30:07.883Z,10.00
2018-05-18T23:32:33.849Z,10.00
2018-05-18T23:35:00.568Z,9.90
2018-05-18T23:37:26.538Z,9.90
2018-05-18T23:39:53.272Z,9.90
2018-05-18T23:42:19.259Z,9.80
2018-05-18T23:44:45.282Z,9.80
2018-05-18T23:47:11.297Z,9.70
2018-05-18T23:49:37.255Z,9.60
2018-05-18T23:52:03.221Z,9.50
2018-05-18T23:54:29.249Z,9.40
2018-05-18T23:56:55.223Z,9.40
2018-05-18T23:59:22.054Z,9.30
